createdAt,value
2023-05-16T00:00:47.498Z,31.58
2023-05-16T00:03:16.604Z,32.47
2023-05-16T00:05:45.636Z,35.90
2023-05-16T00:08:15.104Z,36.60
2023-05-16T00:10:44.143Z,32.13
2023-05-16T00:13:13.136Z,37.80
2023-05-16T00:15:42.227Z,33.00
2023-05-16T00:18:11.366Z,37.50
2023-05-16T00:20:40.465Z,31.50
2023-05-16T00:23:09.468Z,32.67
2023-05-16T00:25:38.674Z,27.15
2023-05-16T00:28:08.022Z,28.95
2023-05-16T00:30:37.550Z,27.90
2023-05-16T00:33:06.740Z,33.78
2023-05-16T00:35:35.914Z,29.48
2023-05-16T00:38:04.991Z,26.05
2023-05-16T00:40:34.112Z,26.00
2023-05-16T00:43:03.093Z,28.45
2023-05-16T00:45:32.184Z,34.63
2023-05-16T00:48:01.247Z,32.78
2023-05-16T00:50:30.290Z,32.53
2023-05-16T00:52:59.715Z,29.85
2023-05-16T00:55:28.777Z,26.25
2023-05-16T00:57:59.902Z,21.27
2023-05-16T01:00:29.398Z,28.83
2023-05-16T01:02:58.977Z,28.15
2023-05-16T01:05:28.434Z,24.70
2023-05-16T01:07:57.708Z,28.40
2023-05-16T01:10:28.651Z,31.50
2023-05-16T01:13:16.982Z,28.30
2023-05-16T01:16:01.126Z,19.48
2023-05-16T01:19:09.277Z,27.70
2023-05-16T01:22:25.868Z,23.55
2023-05-16T01:24:57.836Z,25.92
2023-05-16T01:27:28.563Z,21.83
2023-05-16T01:30:00.359Z,39.42
2023-05-16T01:32:29.439Z,24.17
2023-05-16T01:34:58.557Z,25.10
2023-05-16T01:37:42.865Z,22.27
2023-05-16T01:40:18.100Z,29.55
2023-05-16T01:42:51.259Z,26.85
2023-05-16T01:45:22.794Z,22.80
2023-05-16T01:48:18.846Z,24.35
2023-05-16T01:50:54.129Z,22.15
2023-05-16T01:53:29.693Z,20.35
2023-05-16T01:56:01.889Z,20.77
2023-05-16T01:58:34.569Z,25.42
2023-05-16T02:01:08.557Z,21.35
2023-05-16T02:03:37.800Z,18.90
2023-05-16T02:06:07.157Z,18.08
2023-05-16T02:08:36.377Z,26.23
2023-05-16T02:11:05.441Z,20.33
2023-05-16T02:13:34.440Z,19.25
2023-05-16T02:16:03.541Z,22.80
2023-05-16T02:18:33.133Z,17.30
2023-05-16T02:21:02.331Z,17.25
2023-05-16T02:23:31.328Z,15.25
2023-05-16T02:26:00.323Z,19.90
2023-05-16T02:28:29.365Z,20.77
2023-05-16T02:31:01.983Z,19.15
2023-05-16T02:33:31.786Z,24.98
2023-05-16T02:36:00.829Z,20.30
2023-05-16T02:38:29.857Z,18.50
2023-05-16T02:40:58.881Z,18.55
2023-05-16T02:43:27.968Z,16.17
2023-05-16T02:45:57.181Z,20.08
2023-05-16T02:48:26.271Z,23.08
2023-05-16T02:50:55.274Z,17.35
2023-05-16T02:53:24.287Z,19.70
2023-05-16T02:55:53.301Z,21.70
2023-05-16T02:58:22.329Z,20.65
2023-05-16T03:00:51.288Z,20.38
2023-05-16T03:03:20.351Z,16.67
2023-05-16T03:05:49.865Z,18.50
2023-05-16T03:08:19.097Z,15.13
2023-05-16T03:10:48.134Z,19.52
2023-05-16T03:13:17.078Z,12.13
2023-05-16T03:15:46.281Z,18.45
2023-05-16T03:18:15.388Z,16.17
2023-05-16T03:20:44.484Z,19.55
2023-05-16T03:23:14.050Z,15.13
2023-05-16T03:25:44.418Z,16.73
2023-05-16T03:28:15.230Z,16.92
2023-05-16T03:30:44.575Z,17.00
2023-05-16T03:33:13.762Z,19.17
2023-05-16T03:35:42.859Z,15.45
2023-05-16T03:38:12.006Z,15.60
2023-05-16T03:40:42.642Z,17.73
2023-05-16T03:43:11.706Z,16.02
2023-05-16T03:45:41.665Z,18.02
2023-05-16T03:48:11.774Z,18.33
2023-05-16T03:50:41.262Z,16.48
2023-05-16T03:53:13.143Z,16.35
2023-05-16T03:55:42.213Z,18.20
2023-05-16T03:58:11.311Z,14.82
2023-05-16T04:00:40.316Z,19.75
2023-05-16T04:03:09.915Z,18.70
2023-05-16T04:05:39.220Z,18.30
2023-05-16T04:08:08.254Z,18.65
2023-05-16T04:10:37.265Z,16.92
2023-05-16T04:13:06.227Z,15.05
2023-05-16T04:15:35.231Z,18.23
2023-05-16T04:18:04.501Z,16.40
2023-05-16T04:20:33.460Z,20.20
2023-05-16T04:23:02.442Z,16.65
2023-05-16T04:25:32.418Z,17.35
2023-05-16T04:28:01.388Z,15.15
2023-05-16T04:30:34.042Z,17.75
2023-05-16T04:33:03.234Z,16.67
2023-05-16T04:35:32.387Z,17.63
2023-05-16T04:38:01.522Z,18.10
2023-05-16T04:40:30.561Z,14.25
2023-05-16T04:42:59.618Z,16.33
2023-05-16T04:45:28.833Z,13.38
2023-05-16T04:47:58.118Z,17.48
2023-05-16T04:50:27.393Z,16.55
2023-05-16T04:52:56.613Z,20.67
2023-05-16T04:55:25.928Z,15.55
2023-05-16T04:57:55.257Z,12.45
2023-05-16T05:00:24.324Z,16.50
2023-05-16T05:02:53.419Z,15.88
2023-05-16T05:05:22.901Z,17.10
2023-05-16T05:07:52.128Z,13.93
2023-05-16T05:10:21.492Z,17.85
2023-05-16T05:12:50.504Z,12.85
2023-05-16T05:15:20.386Z,16.83
2023-05-16T05:17:49.440Z,17.67
2023-05-16T05:20:18.923Z,16.35
2023-05-16T05:22:48.160Z,13.77
2023-05-16T05:25:17.302Z,16.60
2023-05-16T05:27:46.379Z,13.32
2023-05-16T05:30:15.470Z,19.40
2023-05-16T05:32:44.525Z,17.20
2023-05-16T05:35:13.527Z,13.43
2023-05-16T05:37:42.860Z,15.85
2023-05-16T05:40:12.103Z,15.38
2023-05-16T05:42:41.025Z,16.00
2023-05-16T05:45:10.328Z,14.80
2023-05-16T05:47:39.793Z,14.38
2023-05-16T05:50:10.061Z,12.48
2023-05-16T05:52:39.526Z,13.02
2023-05-16T05:55:08.728Z,15.15
2023-05-16T05:57:37.740Z,12.88
2023-05-16T06:00:08.250Z,20.60
2023-05-16T06:02:37.435Z,21.17
2023-05-16T06:05:07.071Z,19.33
2023-05-16T06:07:36.154Z,16.50
2023-05-16T06:10:07.113Z,16.30
2023-05-16T06:12:36.170Z,13.60
2023-05-16T06:15:05.355Z,18.00
2023-05-16T06:17:34.439Z,17.58
2023-05-16T06:20:03.551Z,15.75
2023-05-16T06:22:32.711Z,19.38
2023-05-16T06:25:02.195Z,18.15
2023-05-16T06:27:31.259Z,15.18
2023-05-16T06:30:00.511Z,14.40
2023-05-16T06:32:29.591Z,14.60
2023-05-16T06:34:58.614Z,12.63
2023-05-16T06:37:27.732Z,21.35
2023-05-16T06:39:57.213Z,16.33
2023-05-16T06:42:26.322Z,13.35
2023-05-16T06:44:55.286Z,15.00
2023-05-16T06:47:24.368Z,16.70
2023-05-16T06:49:53.474Z,18.40
2023-05-16T06:52:23.423Z,19.00
2023-05-16T06:54:55.628Z,20.33
2023-05-16T06:57:24.920Z,15.30
2023-05-16T06:59:53.896Z,14.25
2023-05-16T07:02:23.076Z,11.15
2023-05-16T07:04:52.314Z,14.25
2023-05-16T07:07:21.364Z,17.15
2023-05-16T07:09:50.447Z,16.55
2023-05-16T07:12:19.618Z,17.38
2023-05-16T07:14:48.974Z,10.73
2023-05-16T07:17:18.543Z,14.15
2023-05-16T07:19:47.635Z,16.27
2023-05-16T07:22:16.678Z,14.48
2023-05-16T07:24:45.854Z,13.98
2023-05-16T07:27:14.866Z,12.88
2023-05-16T07:29:43.934Z,15.60
2023-05-16T07:32:13.109Z,14.85
2023-05-16T07:34:42.290Z,17.52
2023-05-16T07:37:14.129Z,14.80
2023-05-16T07:39:43.387Z,13.68
2023-05-16T07:42:12.725Z,19.20
2023-05-16T07:44:42.097Z,19.75
2023-05-16T07:47:11.280Z,16.33
2023-05-16T07:49:43.358Z,14.45
2023-05-16T07:52:12.494Z,20.40
2023-05-16T07:54:52.839Z,14.63
2023-05-16T07:57:24.650Z,15.18
2023-05-16T07:59:54.192Z,15.23
2023-05-16T08:02:31.709Z,23.02
2023-05-16T08:05:00.930Z,14.85
2023-05-16T08:07:29.991Z,17.65
2023-05-16T08:09:58.978Z,14.15
2023-05-16T08:12:28.717Z,14.63
2023-05-16T08:14:58.099Z,13.82
2023-05-16T08:17:27.194Z,17.33
2023-05-16T08:19:56.332Z,15.80
2023-05-16T08:22:25.416Z,15.95
2023-05-16T08:24:55.487Z,16.38
2023-05-16T08:27:24.802Z,20.55
2023-05-16T08:29:53.838Z,16.05
2023-05-16T08:32:24.506Z,14.57
2023-05-16T08:34:53.699Z,12.25
2023-05-16T08:37:22.726Z,15.98
2023-05-16T08:39:51.969Z,15.85
2023-05-16T08:42:21.121Z,13.70
2023-05-16T08:44:50.326Z,14.30
2023-05-16T08:47:26.612Z,13.43
2023-05-16T08:49:57.442Z,13.77
2023-05-16T08:52:34.789Z,15.35
2023-05-16T08:55:11.369Z,10.98
2023-05-16T08:57:42.271Z,17.50
2023-05-16T09:00:15.532Z,23.42
2023-05-16T09:02:45.982Z,20.30
2023-05-16T09:05:17.380Z,16.02
2023-05-16T09:07:47.425Z,14.15
2023-05-16T09:10:16.670Z,13.38
2023-05-16T09:12:47.473Z,11.43
2023-05-16T09:15:16.632Z,14.13
2023-05-16T09:17:47.772Z,12.75
2023-05-16T09:20:22.148Z,16.55
2023-05-16T09:22:56.660Z,14.52
2023-05-16T09:25:32.941Z,22.88
2023-05-16T09:28:04.170Z,15.77
2023-05-16T09:30:35.449Z,14.45
2023-05-16T09:33:12.598Z,12.25
2023-05-16T09:35:45.448Z,15.10
2023-05-16T09:40:48.703Z,13.68
2023-05-16T09:43:18.857Z,12.98
2023-05-16T09:45:49.684Z,18.23
2023-05-16T09:48:19.509Z,17.50
2023-05-16T09:50:55.336Z,22.30
2023-05-16T09:53:37.128Z,17.80
2023-05-16T09:56:08.032Z,11.98
2023-05-16T09:58:40.234Z,17.20
2023-05-16T10:01:10.460Z,14.82
2023-05-16T10:03:41.595Z,18.83
2023-05-16T10:06:12.580Z,15.98
2023-05-16T10:08:44.861Z,18.10
2023-05-16T10:11:14.990Z,17.42
2023-05-16T10:13:44.336Z,19.75
2023-05-16T10:16:16.354Z,18.10
2023-05-16T10:18:47.067Z,20.75
2023-05-16T10:21:18.431Z,16.70
2023-05-16T10:23:51.899Z,14.63
2023-05-16T10:26:23.185Z,19.25
2023-05-16T10:28:54.542Z,20.40
2023-05-16T10:31:24.403Z,18.55
2023-05-16T10:33:54.347Z,17.48
2023-05-16T10:36:23.660Z,21.70
2023-05-16T10:38:53.903Z,22.63
2023-05-16T10:41:23.228Z,20.90
2023-05-16T10:43:59.859Z,16.30
2023-05-16T10:46:31.251Z,18.10
2023-05-16T10:49:00.510Z,22.60
2023-05-16T10:51:38.330Z,17.58
2023-05-16T10:54:12.448Z,18.00
2023-05-16T10:56:41.798Z,20.40
2023-05-16T10:59:28.345Z,17.98
2023-05-16T11:01:58.483Z,26.75
2023-05-16T11:04:47.763Z,21.88
2023-05-16T11:07:19.297Z,20.38
2023-05-16T11:09:54.684Z,19.30
2023-05-16T11:12:23.657Z,19.10
2023-05-16T11:14:53.881Z,20.85
2023-05-16T11:17:25.204Z,21.30
2023-05-16T11:20:00.978Z,17.95
2023-05-16T11:22:42.627Z,16.02
2023-05-16T11:25:12.435Z,31.90
2023-05-16T11:27:49.240Z,19.50
2023-05-16T11:30:20.738Z,20.65
2023-05-16T11:32:50.256Z,19.60
2023-05-16T11:35:20.081Z,20.40
2023-05-16T11:37:49.791Z,20.60
2023-05-16T11:40:19.474Z,20.67
2023-05-16T11:42:49.800Z,18.05
2023-05-16T11:45:20.724Z,22.52
2023-05-16T11:47:50.807Z,22.58
2023-05-16T11:50:22.443Z,18.60
2023-05-16T11:52:58.509Z,22.65
2023-05-16T11:55:41.221Z,26.88
2023-05-16T11:58:13.444Z,31.15
2023-05-16T12:00:51.318Z,29.90
2023-05-16T12:03:22.042Z,23.40
2023-05-16T12:06:02.111Z,21.90
2023-05-16T12:08:31.900Z,20.38
2023-05-16T12:11:02.160Z,23.90
2023-05-16T12:13:31.374Z,24.70
2023-05-16T12:16:00.692Z,26.05
2023-05-16T12:18:29.892Z,30.42
2023-05-16T12:20:59.045Z,21.02
2023-05-16T12:23:30.570Z,23.13
2023-05-16T12:25:59.669Z,21.20
2023-05-16T12:28:38.641Z,22.85
2023-05-16T12:31:32.234Z,19.67
2023-05-16T12:34:01.839Z,18.58
2023-05-16T12:36:38.915Z,18.70
2023-05-16T12:39:09.369Z,18.48
2023-05-16T12:41:44.314Z,18.63
2023-05-16T12:44:18.982Z,21.60
2023-05-16T12:46:50.932Z,21.25
2023-05-16T12:49:24.317Z,30.15
2023-05-16T12:51:55.182Z,23.27
2023-05-16T12:54:24.931Z,26.77
2023-05-16T12:56:54.038Z,28.45
2023-05-16T12:59:23.151Z,25.75
2023-05-16T13:01:55.449Z,28.05
2023-05-16T13:04:24.900Z,27.17
2023-05-16T13:06:59.067Z,24.55
2023-05-16T13:09:32.325Z,29.98
2023-05-16T13:12:01.972Z,26.45
2023-05-16T13:14:31.009Z,26.20
2023-05-16T13:17:00.059Z,28.35
2023-05-16T13:19:29.415Z,31.20
2023-05-16T13:21:58.493Z,23.50
2023-05-16T13:24:27.538Z,25.65
2023-05-16T13:26:56.856Z,28.13
2023-05-16T13:29:25.942Z,31.67
2023-05-16T13:31:54.994Z,26.45
2023-05-16T13:34:24.064Z,30.13
2023-05-16T13:36:54.467Z,32.78
2023-05-16T13:39:24.318Z,31.13
2023-05-16T13:41:54.967Z,27.95
2023-05-16T13:44:24.083Z,26.38
2023-05-16T13:46:53.139Z,26.85
2023-05-16T13:49:22.313Z,26.27
2023-05-16T13:51:53.243Z,25.60
2023-05-16T13:54:24.080Z,24.52
2023-05-16T13:56:53.207Z,19.88
2023-05-16T13:59:44.945Z,30.02
2023-05-16T14:02:11.502Z,22.38
2023-05-16T14:04:40.538Z,22.00
2023-05-16T14:07:09.585Z,29.02
2023-05-16T14:09:40.561Z,23.10
2023-05-16T14:12:10.130Z,27.00
2023-05-16T14:14:39.475Z,24.27
2023-05-16T14:17:08.901Z,24.20
2023-05-16T14:19:38.508Z,24.35
2023-05-16T14:22:07.664Z,23.85
2023-05-16T14:24:36.780Z,23.33
2023-05-16T14:27:09.341Z,25.08
2023-05-16T14:29:38.438Z,22.48
2023-05-16T14:32:07.892Z,23.50
2023-05-16T14:34:37.017Z,25.13
2023-05-16T14:37:06.256Z,28.08
2023-05-16T14:39:35.395Z,31.75
2023-05-16T14:42:05.604Z,29.77
2023-05-16T14:44:37.334Z,28.92
2023-05-16T14:47:06.752Z,26.73
2023-05-16T14:49:35.862Z,21.45
2023-05-16T14:52:04.911Z,24.38
2023-05-16T14:54:34.113Z,25.38
2023-05-16T14:57:04.490Z,24.83
2023-05-16T14:59:33.507Z,24.63
2023-05-16T15:02:02.670Z,23.92
2023-05-16T15:04:31.915Z,25.15
2023-05-16T15:07:01.037Z,26.73
2023-05-16T15:09:30.060Z,23.83
2023-05-16T15:11:59.129Z,22.38
2023-05-16T15:14:28.499Z,27.55
2023-05-16T15:16:57.481Z,23.10
2023-05-16T15:19:26.896Z,23.70
2023-05-16T15:21:56.104Z,28.73
2023-05-16T15:24:26.619Z,26.67
2023-05-16T15:26:55.665Z,24.35
2023-05-16T15:29:24.750Z,22.08
2023-05-16T15:31:53.922Z,31.27
2023-05-16T15:34:22.980Z,27.73
2023-05-16T15:36:52.075Z,27.58
2023-05-16T15:39:21.088Z,29.15
2023-05-16T15:42:09.071Z,31.60
2023-05-16T15:44:39.776Z,22.85
2023-05-16T15:47:10.130Z,27.02
2023-05-16T15:49:39.203Z,26.08
2023-05-16T15:52:08.312Z,29.05
2023-05-16T15:54:38.658Z,26.85
2023-05-16T15:57:07.896Z,23.63
2023-05-16T15:59:36.932Z,29.40
2023-05-16T16:02:06.798Z,35.47
2023-05-16T16:04:35.878Z,26.20
2023-05-16T16:07:04.918Z,29.15
2023-05-16T16:09:33.956Z,28.50
2023-05-16T16:12:03.736Z,30.10
2023-05-16T16:14:32.948Z,26.13
2023-05-16T16:17:02.064Z,26.17
2023-05-16T16:19:34.261Z,30.38
2023-05-16T16:22:03.258Z,29.08
2023-05-16T16:24:32.290Z,31.33
2023-05-16T16:27:01.350Z,29.15
2023-05-16T16:29:30.464Z,30.98
2023-05-16T16:32:00.259Z,26.20
2023-05-16T16:34:29.417Z,29.67
2023-05-16T16:36:58.463Z,32.70
2023-05-16T16:39:29.404Z,28.33
2023-05-16T16:41:59.642Z,33.38
2023-05-16T16:44:28.708Z,28.52
2023-05-16T16:46:58.125Z,29.95
2023-05-16T16:49:27.191Z,31.00
2023-05-16T16:51:56.190Z,27.05
2023-05-16T16:54:25.475Z,31.25
2023-05-16T16:56:54.498Z,32.63
2023-05-16T16:59:23.565Z,30.10
2023-05-16T17:01:52.738Z,30.02
2023-05-16T17:04:21.824Z,36.17
2023-05-16T17:06:50.938Z,31.58
2023-05-16T17:09:20.802Z,32.92
2023-05-16T17:11:50.093Z,40.92
2023-05-16T17:14:19.140Z,47.20
2023-05-16T17:16:48.245Z,30.73
2023-05-16T17:19:17.548Z,33.17
2023-05-16T17:21:48.603Z,33.80
2023-05-16T17:24:17.686Z,27.70
2023-05-16T17:26:46.867Z,28.08
2023-05-16T17:29:15.913Z,27.58
2023-05-16T17:31:44.977Z,34.92
2023-05-16T17:34:14.249Z,24.05
2023-05-16T17:36:43.250Z,31.85
2023-05-16T17:39:12.432Z,24.17
2023-05-16T17:41:41.558Z,29.05
2023-05-16T17:44:10.658Z,26.75
2023-05-16T17:46:39.738Z,39.25
2023-05-16T17:49:09.290Z,29.30
2023-05-16T17:52:00.315Z,31.52
2023-05-16T17:54:32.250Z,31.45
2023-05-16T17:57:02.037Z,34.75
2023-05-16T17:59:31.243Z,29.83
2023-05-16T18:02:00.524Z,31.75
2023-05-16T18:04:29.582Z,22.85
2023-05-16T18:06:59.159Z,27.15
2023-05-16T18:09:28.176Z,33.20
2023-05-16T18:11:57.296Z,27.50
2023-05-16T18:14:26.293Z,26.48
2023-05-16T18:16:55.380Z,29.10
2023-05-16T18:19:24.985Z,35.92
2023-05-16T18:21:54.334Z,28.23
2023-05-16T18:24:23.423Z,30.10
2023-05-16T18:26:52.490Z,28.98
2023-05-16T18:29:22.683Z,26.35
2023-05-16T18:31:51.758Z,26.17
2023-05-16T18:34:21.096Z,25.08
2023-05-16T18:36:50.445Z,29.50
2023-05-16T18:39:21.499Z,24.42
2023-05-16T18:41:50.631Z,24.40
2023-05-16T18:44:20.033Z,30.85
2023-05-16T18:46:49.091Z,23.67
2023-05-16T18:49:18.192Z,24.15
2023-05-16T18:51:47.216Z,28.38
2023-05-16T18:54:16.260Z,23.10
2023-05-16T18:56:45.379Z,31.67
2023-05-16T18:59:14.511Z,27.85
2023-05-16T19:01:43.708Z,36.70
2023-05-16T19:04:12.871Z,27.63
2023-05-16T19:06:41.953Z,26.38
2023-05-16T19:09:11.911Z,28.50
2023-05-16T19:11:41.016Z,22.70
2023-05-16T19:14:10.407Z,26.73
2023-05-16T19:16:39.414Z,27.40
2023-05-16T19:19:09.355Z,24.33
2023-05-16T19:21:39.170Z,29.05
2023-05-16T19:24:08.762Z,29.48
2023-05-16T19:26:37.798Z,23.63
2023-05-16T19:29:07.197Z,25.15
2023-05-16T19:31:36.297Z,27.80
2023-05-16T19:34:05.426Z,29.48
2023-05-16T19:36:35.512Z,27.77
2023-05-16T19:39:04.518Z,26.92
2023-05-16T19:41:33.569Z,31.25
2023-05-16T19:44:05.441Z,24.35
2023-05-16T19:46:34.640Z,32.00
2023-05-16T19:49:03.752Z,31.48
2023-05-16T19:51:41.420Z,28.88
2023-05-16T19:54:11.450Z,32.53
2023-05-16T19:56:40.439Z,21.60
2023-05-16T19:59:09.600Z,26.20
2023-05-16T20:01:38.647Z,33.08
2023-05-16T20:04:08.484Z,25.42
2023-05-16T20:06:37.630Z,26.67
2023-05-16T20:09:07.413Z,23.42
2023-05-16T20:11:36.727Z,33.92
2023-05-16T20:14:06.078Z,27.45
2023-05-16T20:16:35.173Z,27.90
2023-05-16T20:19:04.321Z,22.65
2023-05-16T20:21:33.642Z,28.40
2023-05-16T20:24:02.854Z,31.08
2023-05-16T20:26:31.862Z,28.30
2023-05-16T20:29:00.907Z,23.15
2023-05-16T20:31:29.920Z,27.92
2023-05-16T20:33:59.005Z,31.13
2023-05-16T20:36:28.216Z,31.08
2023-05-16T20:38:57.363Z,30.73
2023-05-16T20:41:27.372Z,26.50
2023-05-16T20:43:57.065Z,28.02
2023-05-16T20:46:26.106Z,29.52
2023-05-16T20:48:55.157Z,30.10
2023-05-16T20:51:24.203Z,28.35
2023-05-16T20:53:53.195Z,32.20
2023-05-16T20:56:22.188Z,25.40
2023-05-16T20:58:51.636Z,29.33
2023-05-16T21:01:20.841Z,26.40
2023-05-16T21:03:49.901Z,25.60
2023-05-16T21:06:19.002Z,24.75
2023-05-16T21:08:48.077Z,25.48
2023-05-16T21:11:17.339Z,27.40
2023-05-16T21:13:46.445Z,27.05
2023-05-16T21:16:15.454Z,35.22
2023-05-16T21:18:44.701Z,27.60
2023-05-16T21:21:13.847Z,29.23
2023-05-16T21:23:42.921Z,30.48
2023-05-16T21:26:12.414Z,31.30
2023-05-16T21:28:54.035Z,26.33
2023-05-16T21:31:24.709Z,31.02
2023-05-16T21:33:53.853Z,27.23
2023-05-16T21:36:23.133Z,28.83
2023-05-16T21:38:52.261Z,30.52
2023-05-16T21:41:22.764Z,30.63
2023-05-16T21:43:51.961Z,27.60
2023-05-16T21:46:21.322Z,30.67
2023-05-16T21:48:50.338Z,27.10
2023-05-16T21:51:20.772Z,27.52
2023-05-16T21:53:50.157Z,28.52
2023-05-16T21:56:19.992Z,29.45
2023-05-16T21:58:49.103Z,32.20
2023-05-16T22:01:18.513Z,32.08
2023-05-16T22:03:48.645Z,32.17
2023-05-16T22:06:18.185Z,34.28
2023-05-16T22:08:47.635Z,37.03
2023-05-16T22:11:17.346Z,32.28
2023-05-16T22:13:46.480Z,30.15
2023-05-16T22:16:15.520Z,31.27
2023-05-16T22:18:45.002Z,29.15
2023-05-16T22:21:14.372Z,41.05
2023-05-16T22:23:43.723Z,39.13
2023-05-16T22:26:12.847Z,43.63
2023-05-16T22:28:41.845Z,32.92
2023-05-16T22:31:10.895Z,30.15
2023-05-16T22:33:40.121Z,38.42
2023-05-16T22:36:09.472Z,35.55
2023-05-16T22:38:38.642Z,38.55
2023-05-16T22:41:07.710Z,43.28
2023-05-16T22:43:36.791Z,38.40
2023-05-16T22:46:05.939Z,37.08
2023-05-16T22:48:35.197Z,40.42
2023-05-16T22:51:04.680Z,32.42
2023-05-16T22:53:34.043Z,37.15
2023-05-16T22:56:03.341Z,37.95
2023-05-16T22:58:32.442Z,40.97
2023-05-16T23:01:02.654Z,37.90
2023-05-16T23:03:31.967Z,42.35
2023-05-16T23:06:01.103Z,42.95
2023-05-16T23:08:32.256Z,37.67
2023-05-16T23:11:01.338Z,34.60
2023-05-16T23:13:30.326Z,35.75
2023-05-16T23:15:59.421Z,36.90
2023-05-16T23:18:28.539Z,43.45
2023-05-16T23:20:57.696Z,37.92
2023-05-16T23:23:26.832Z,37.60
2023-05-16T23:25:55.896Z,42.65
2023-05-16T23:28:24.990Z,37.42
2023-05-16T23:30:54.039Z,45.70
2023-05-16T23:33:23.104Z,44.35
2023-05-16T23:35:52.508Z,40.85
2023-05-16T23:38:21.542Z,44.05
2023-05-16T23:40:50.581Z,41.70
2023-05-16T23:43:19.961Z,42.95
2023-05-16T23:45:49.037Z,44.80
2023-05-16T23:48:18.200Z,50.53
2023-05-16T23:50:47.305Z,38.05
2023-05-16T23:53:16.397Z,45.92
2023-05-16T23:55:45.595Z,33.95
2023-05-16T23:58:14.595Z,35.67
